Rowesville, South Carolina
Current Conditions -  °F | °C
As of 10:53 PM on Saturday 24 Jan 2015 (Local Time) from KOGB Reporting Station
Clear Clear  
Wind Chill: 37°   Ceiling: Unl
Heat Index: 42°   Visibility: 10mi
Dew Point: 29°   Wind: 9mph
Humidity: 60%   Direction: 260°W
Pressure: 29.91"   Gusts: NA
Location:  33.37°N, 80.84°W
Report Text: KOGB 250353Z AUTO 26008KT 10SM CLR 06/M02 A2991 RMK AO2 SLP128 T00561017
Loading
Personal Weather Stations






























Interactive Weather Map New forecast layout! Learn more

10-Day Weather Forecast

Advertisements
Track Severe Weather on mobile